createdAt,value
2019-05-01T00:01:25.386Z,98092.88
2019-05-01T00:07:01.591Z,98089.36
2019-05-01T00:12:41.943Z,98081.64
2019-05-01T00:18:41.246Z,98071.95
2019-05-01T00:21:10.669Z,98063.59
2019-05-01T00:23:40.011Z,98068.34
2019-05-01T00:26:09.366Z,98058.34
2019-05-01T00:28:38.689Z,98059.71
2019-05-01T00:31:08.026Z,98062.05
2019-05-01T00:33:37.392Z,98062.51
2019-05-01T00:36:06.728Z,98062.91
2019-05-01T00:38:36.070Z,98059.77
2019-05-01T00:41:05.418Z,98060.34
2019-05-01T00:43:34.752Z,98061.06
2019-05-01T00:46:05.068Z,98052.42
2019-05-01T00:48:34.403Z,98061.05
2019-05-01T00:51:03.742Z,98058.91
2019-05-01T00:53:33.088Z,98067.25
2019-05-01T00:56:15.972Z,98063.06
2019-05-01T00:59:03.108Z,98067.97
2019-05-01T01:01:43.100Z,98061.59
2019-05-01T01:04:14.088Z,98067.00
2019-05-01T01:06:43.425Z,98064.77
2019-05-01T01:09:13.718Z,98061.38
2019-05-01T01:11:43.048Z,98059.60
2019-05-01T01:14:12.387Z,98058.02
2019-05-01T01:16:41.733Z,98057.92
2019-05-01T01:19:11.067Z,98052.95
2019-05-01T01:21:41.168Z,98051.30
2019-05-01T01:24:10.810Z,98047.05
2019-05-01T01:26:40.486Z,98049.41
2019-05-01T01:29:10.702Z,98044.00
2019-05-01T01:31:40.104Z,98037.48
2019-05-01T01:34:09.511Z,98038.12
2019-05-01T01:36:38.859Z,98031.98
2019-05-01T01:39:08.263Z,98032.56
2019-05-01T01:41:37.666Z,98032.73
2019-05-01T01:44:09.091Z,98027.66
2019-05-01T01:46:40.232Z,98030.41
2019-05-01T01:49:09.712Z,98031.50
2019-05-01T01:51:39.191Z,98030.20
2019-05-01T01:54:08.597Z,98027.16
2019-05-01T01:56:38.282Z,98029.30
2019-05-01T01:59:07.862Z,98022.17
2019-05-01T02:01:55.220Z,98025.88
2019-05-01T02:04:29.169Z,98027.20
2019-05-01T02:06:58.506Z,98025.78
2019-05-01T02:09:28.488Z,98023.16
2019-05-01T02:11:58.000Z,98030.33
2019-05-01T02:14:27.476Z,98022.86
2019-05-01T02:16:56.826Z,98022.01
2019-05-01T02:19:26.232Z,98022.19
2019-05-01T02:21:55.592Z,98022.19
2019-05-01T02:24:24.951Z,98021.98
2019-05-01T02:26:55.998Z,98026.67
2019-05-01T02:29:29.935Z,98017.28
2019-05-01T02:32:00.314Z,98015.91
2019-05-01T02:34:31.002Z,98019.57
2019-05-01T02:37:03.249Z,98018.14
2019-05-01T02:39:34.949Z,98013.78
2019-05-01T02:42:04.832Z,98011.47
2019-05-01T02:44:37.263Z,98007.60
2019-05-01T02:47:09.394Z,98009.46
2019-05-01T02:49:44.610Z,98001.60
2019-05-01T02:52:14.463Z,98005.47
2019-05-01T02:54:47.489Z,98004.25
2019-05-01T02:57:20.491Z,98004.56
2019-05-01T02:59:52.690Z,97999.99
2019-05-01T03:02:24.888Z,97996.67
2019-05-01T03:04:56.065Z,98003.39
2019-05-01T03:07:27.886Z,98007.86
2019-05-01T03:09:57.377Z,98012.33
2019-05-01T03:12:29.765Z,98005.48
2019-05-01T03:15:01.809Z,98008.91
2019-05-01T03:17:36.763Z,98002.25
2019-05-01T03:20:14.757Z,98007.81
2019-05-01T03:22:45.812Z,98007.86
2019-05-01T03:25:15.442Z,98011.09
2019-05-01T03:27:44.922Z,98005.42
2019-05-01T03:30:14.550Z,98012.05
2019-05-01T03:32:43.940Z,98005.75
2019-05-01T03:35:13.274Z,98002.25
2019-05-01T03:37:42.691Z,98004.80
2019-05-01T03:40:13.833Z,98002.36
2019-05-01T03:42:43.432Z,98006.22
2019-05-01T03:45:12.917Z,98005.73
2019-05-01T03:47:42.425Z,98004.14
2019-05-01T03:50:12.058Z,97998.98
2019-05-01T03:52:41.811Z,97994.11
2019-05-01T03:55:11.490Z,97999.73
2019-05-01T03:57:42.869Z,97997.86
2019-05-01T04:00:15.021Z,97994.38
2019-05-01T04:03:02.995Z,97994.47
2019-05-01T04:05:32.345Z,97995.73
2019-05-01T04:08:01.849Z,97987.79
2019-05-01T04:10:31.478Z,97994.66
2019-05-01T04:13:00.890Z,97990.58
2019-05-01T04:15:30.312Z,97994.79
2019-05-01T04:18:01.307Z,97991.26
2019-05-01T04:20:30.723Z,97991.00
2019-05-01T04:23:00.519Z,97989.52
2019-05-01T04:25:30.001Z,97988.63
2019-05-01T04:28:01.526Z,97994.09
2019-05-01T04:30:49.173Z,97994.48
2019-05-01T04:33:20.229Z,98000.88
2019-05-01T04:35:51.198Z,98002.97
2019-05-01T04:38:20.552Z,98007.18
2019-05-01T04:40:49.973Z,98004.87
2019-05-01T04:43:21.424Z,98003.42
2019-05-01T04:45:51.913Z,98010.71
2019-05-01T04:48:22.399Z,98004.22
2019-05-01T04:50:52.406Z,98009.59
2019-05-01T04:53:21.937Z,98012.56
2019-05-01T04:55:51.334Z,98011.22
2019-05-01T04:58:20.906Z,98015.19
2019-05-01T05:00:50.704Z,98020.39
2019-05-01T05:03:22.014Z,98023.20
2019-05-01T05:05:51.440Z,98019.91
2019-05-01T05:08:20.864Z,98026.55
2019-05-01T05:10:51.989Z,98026.27
2019-05-01T05:13:26.398Z,98019.36
2019-05-01T05:16:03.659Z,98026.39
2019-05-01T05:18:34.038Z,98024.77
2019-05-01T05:21:03.963Z,98023.14
2019-05-01T05:23:33.973Z,98021.11
2019-05-01T05:26:04.164Z,98017.34
2019-05-01T05:28:34.246Z,98019.17
2019-05-01T05:31:04.685Z,98017.80
2019-05-01T05:33:36.030Z,98018.00
2019-05-01T05:36:07.140Z,98020.61
2019-05-01T05:38:45.317Z,98018.82
2019-05-01T05:41:15.593Z,98020.60
2019-05-01T05:43:45.015Z,98019.18
2019-05-01T05:46:14.918Z,98021.53
2019-05-01T05:48:44.334Z,98026.81
2019-05-01T05:51:19.053Z,98024.02
2019-05-01T05:53:55.837Z,98028.38
2019-05-01T05:56:30.044Z,98018.10
2019-05-01T05:59:04.117Z,98028.18
2019-05-01T06:01:37.123Z,98026.22
2019-05-01T06:04:25.672Z,98026.90
2019-05-01T06:07:13.796Z,98022.56
2019-05-01T06:09:55.200Z,98021.91
2019-05-01T06:12:29.429Z,98021.91
2019-05-01T06:15:06.102Z,98023.67
2019-05-01T06:17:41.062Z,98024.63
2019-05-01T06:20:12.112Z,98020.31
2019-05-01T06:23:01.745Z,98018.94
2019-05-01T06:25:35.946Z,98015.00
2019-05-01T06:28:05.734Z,98022.72
2019-05-01T06:30:35.727Z,98027.73
2019-05-01T06:33:09.530Z,98024.06
2019-05-01T06:35:41.567Z,98030.27
2019-05-01T06:38:31.598Z,98029.03
2019-05-01T06:41:06.504Z,98017.73
2019-05-01T06:43:57.109Z,98016.73
2019-05-01T06:50:27.116Z,98015.23
2019-05-01T06:56:30.913Z,98019.87
2019-05-01T06:59:11.018Z,98016.56
2019-05-01T07:05:03.137Z,98020.69
2019-05-01T07:16:17.178Z,98024.72
2019-05-01T07:18:46.585Z,98026.09
2019-05-01T07:21:15.921Z,98020.91
2019-05-01T07:24:28.058Z,98018.54
2019-05-01T07:27:01.723Z,98018.20
2019-05-01T07:32:41.163Z,98022.59
2019-05-01T07:35:09.143Z,98022.06
2019-05-01T07:38:18.627Z,98023.56
2019-05-01T07:40:48.213Z,98027.95
2019-05-01T07:43:36.808Z,98024.77
2019-05-01T07:49:01.888Z,98028.44
2019-05-01T07:51:31.359Z,98017.54
2019-05-01T07:54:21.502Z,98017.15
2019-05-01T07:56:50.989Z,98012.86
2019-05-01T07:59:22.859Z,98018.50
2019-05-01T08:04:52.775Z,98018.61
2019-05-01T08:07:22.116Z,98012.78
2019-05-01T08:09:51.599Z,98018.09
2019-05-01T08:12:23.919Z,98019.09
2019-05-01T08:19:04.334Z,98017.36
2019-05-01T08:22:01.761Z,98024.17
2019-05-01T08:24:35.739Z,98016.39
2019-05-01T08:30:48.067Z,98018.41
2019-05-01T08:33:44.824Z,98016.22
2019-05-01T08:36:42.606Z,98010.24
2019-05-01T08:39:27.699Z,98006.22
2019-05-01T08:41:57.134Z,98006.22
2019-05-01T08:45:06.776Z,98004.53
2019-05-01T08:50:40.828Z,98000.84
2019-05-01T08:53:10.168Z,98000.84
2019-05-01T08:55:51.704Z,97996.65
2019-05-01T08:58:21.037Z,97996.65
2019-05-01T09:01:02.286Z,97999.67
2019-05-01T09:03:43.605Z,98002.39
2019-05-01T09:06:12.949Z,98002.16
2019-05-01T09:08:42.281Z,98002.16
2019-05-01T09:11:11.550Z,97996.02
2019-05-01T09:13:40.895Z,98007.52
2019-05-01T09:16:10.228Z,97998.45
2019-05-01T09:18:39.560Z,97984.47
2019-05-01T09:21:08.906Z,97992.61
2019-05-01T09:23:38.239Z,97992.61
2019-05-01T09:26:26.697Z,97988.18
2019-05-01T09:29:16.139Z,97980.27
2019-05-01T09:31:52.077Z,97983.66
2019-05-01T09:34:21.413Z,97982.61
2019-05-01T09:36:50.820Z,97981.14
2019-05-01T09:42:22.856Z,97984.50
2019-05-01T09:44:51.923Z,97953.16
2019-05-01T09:50:30.423Z,97980.25
2019-05-01T09:53:19.970Z,97976.60
2019-05-01T09:56:09.162Z,97976.65
2019-05-01T09:58:38.482Z,97975.36
2019-05-01T10:01:07.895Z,97974.67
2019-05-01T10:03:37.229Z,97962.55
2019-05-01T10:06:06.567Z,97964.23
2019-05-01T10:08:39.906Z,97965.09
2019-05-01T10:11:12.184Z,97966.32
2019-05-01T10:13:41.604Z,97958.34
2019-05-01T10:16:11.076Z,97964.25
2019-05-01T10:18:52.154Z,97960.47
2019-05-01T10:21:22.368Z,97957.23
2019-05-01T10:24:01.960Z,97952.91
2019-05-01T10:30:01.574Z,97944.84
2019-05-01T10:35:51.901Z,97946.01
2019-05-01T10:38:21.232Z,97940.36
2019-05-01T10:40:50.568Z,97943.31
2019-05-01T10:43:19.923Z,97936.69
2019-05-01T10:45:49.256Z,97926.69
2019-05-01T10:48:18.651Z,97932.17
2019-05-01T10:50:48.036Z,97930.52
2019-05-01T10:53:17.335Z,97923.13
2019-05-01T10:55:46.673Z,97925.39
2019-05-01T10:58:17.950Z,97920.47
2019-05-01T11:01:46.046Z,97917.52
2019-05-01T11:07:09.856Z,97911.96
2019-05-01T11:09:39.224Z,97910.77
2019-05-01T11:12:08.565Z,97902.17
2019-05-01T11:14:37.895Z,97908.81
2019-05-01T11:17:07.388Z,97907.19
2019-05-01T11:19:36.726Z,97896.36
2019-05-01T11:22:06.135Z,97893.24
2019-05-01T11:24:47.544Z,97893.26
2019-05-01T11:27:16.877Z,97889.75
2019-05-01T11:29:46.219Z,97889.14
2019-05-01T11:32:34.672Z,97884.88
2019-05-01T11:38:56.985Z,97874.39
2019-05-01T11:44:06.424Z,97882.81
2019-05-01T11:46:35.755Z,97879.23
2019-05-01T11:49:05.279Z,97880.61
2019-05-01T11:51:34.633Z,97875.64
2019-05-01T11:54:04.133Z,97865.09
2019-05-01T11:56:33.473Z,97861.75
2019-05-01T11:59:03.129Z,97856.50
2019-05-01T12:01:32.509Z,97854.95
2019-05-01T12:04:01.810Z,97855.05
2019-05-01T12:06:31.154Z,97850.28
2019-05-01T12:09:00.483Z,97856.12
2019-05-01T12:14:10.067Z,97853.59
2019-05-01T12:16:58.516Z,97846.90
2019-05-01T12:19:46.978Z,97848.97
2019-05-01T12:22:23.716Z,97851.19
2019-05-01T12:24:53.065Z,97849.92
2019-05-01T12:27:22.396Z,97840.27
2019-05-01T12:29:51.736Z,97840.27
2019-05-01T12:32:21.081Z,97837.52
2019-05-01T12:34:50.419Z,97833.52
2019-05-01T12:37:38.889Z,97837.17
2019-05-01T12:43:12.287Z,97832.08
2019-05-01T12:48:42.763Z,97829.00
2019-05-01T12:51:12.208Z,97829.12
2019-05-01T12:54:00.679Z,97820.52
2019-05-01T12:59:10.309Z,97812.62
2019-05-01T13:04:28.029Z,97807.16
2019-05-01T13:07:18.153Z,97802.78
2019-05-01T13:09:47.495Z,97807.07
2019-05-01T13:12:16.831Z,97799.20
2019-05-01T13:14:46.176Z,97798.17
2019-05-01T13:17:15.525Z,97795.69
2019-05-01T13:19:44.905Z,97791.69
2019-05-01T13:22:14.211Z,97789.47
2019-05-01T13:25:02.682Z,97780.31
2019-05-01T13:30:52.691Z,97776.51
2019-05-01T13:33:22.108Z,97767.63
2019-05-01T13:35:51.490Z,97773.98
2019-05-01T13:38:20.915Z,97763.98
2019-05-01T13:40:50.494Z,97764.39
2019-05-01T13:43:19.839Z,97763.16
2019-05-01T13:45:49.168Z,97759.80
2019-05-01T13:48:18.573Z,97760.07
2019-05-01T13:50:47.913Z,97754.75
2019-05-01T13:53:22.555Z,97751.19
2019-05-01T13:55:51.909Z,97746.02
2019-05-01T13:58:21.497Z,97735.45
2019-05-01T14:00:50.835Z,97731.81
2019-05-01T14:03:20.416Z,97738.63
2019-05-01T14:05:49.758Z,97734.50
2019-05-01T14:08:19.198Z,97729.78
2019-05-01T14:10:48.519Z,97727.27
2019-05-01T14:13:17.862Z,97723.11
2019-05-01T14:15:47.202Z,97719.70
2019-05-01T14:18:16.534Z,97721.32
2019-05-01T14:28:45.182Z,97716.36
2019-05-01T14:31:14.517Z,97714.64
2019-05-01T14:33:43.878Z,97712.29
2019-05-01T14:36:13.576Z,97708.24
2019-05-01T14:38:42.910Z,97701.75
2019-05-01T14:41:12.256Z,97706.33
2019-05-01T14:43:41.619Z,97698.09
2019-05-01T14:46:10.956Z,97701.12
2019-05-01T14:48:40.298Z,97692.66
2019-05-01T14:51:09.633Z,97698.56
2019-05-01T14:53:39.084Z,97694.08
2019-05-01T14:56:08.416Z,97696.77
2019-05-01T14:58:37.779Z,97696.34
2019-05-01T15:01:07.195Z,97691.84
2019-05-01T15:03:36.523Z,97689.08
2019-05-01T15:06:25.196Z,97686.59
2019-05-01T15:08:54.532Z,97682.19
2019-05-01T15:11:23.870Z,97682.78
2019-05-01T15:14:12.327Z,97675.92
2019-05-01T15:17:00.768Z,97674.19
2019-05-01T15:22:25.706Z,97665.62
2019-05-01T15:24:55.054Z,97668.36
2019-05-01T15:27:24.397Z,97666.59
2019-05-01T15:29:53.732Z,97662.81
2019-05-01T15:32:23.072Z,97664.03
2019-05-01T15:34:52.476Z,97663.28
2019-05-01T15:37:21.822Z,97658.02
2019-05-01T15:45:36.736Z,97661.08
2019-05-01T15:48:06.086Z,97647.70
2019-05-01T15:50:54.508Z,97642.56
2019-05-01T15:53:23.866Z,97644.95
2019-05-01T15:55:53.228Z,97652.94
2019-05-01T15:58:22.562Z,97635.25
2019-05-01T16:00:51.923Z,97637.36
2019-05-01T16:03:21.262Z,97638.77
2019-05-01T16:05:50.606Z,97635.98
2019-05-01T16:08:19.959Z,97641.56
2019-05-01T16:13:28.381Z,97632.97
2019-05-01T16:15:57.719Z,97632.98
2019-05-01T16:18:27.060Z,97633.73
2019-05-01T16:20:56.397Z,97629.54
2019-05-01T16:23:25.731Z,97639.77
2019-05-01T16:25:55.084Z,97631.05
2019-05-01T16:28:24.409Z,97626.34
2019-05-01T16:30:53.757Z,97626.51
2019-05-01T16:33:23.091Z,97627.22
2019-05-01T16:35:52.660Z,97625.25
2019-05-01T16:38:41.115Z,97629.16
2019-05-01T16:44:19.560Z,97626.69
2019-05-01T16:46:48.895Z,97619.88
2019-05-01T16:49:18.242Z,97617.92
2019-05-01T16:51:47.646Z,97618.88
2019-05-01T16:54:16.975Z,97615.33
2019-05-01T16:56:46.347Z,97612.03
2019-05-01T16:59:15.659Z,97612.27
2019-05-01T17:02:04.185Z,97611.86
2019-05-01T17:04:52.633Z,97610.41
2019-05-01T17:07:41.103Z,97606.93
2019-05-01T17:13:44.805Z,97604.16
2019-05-01T17:16:14.207Z,97597.56
2019-05-01T17:18:43.559Z,97595.23
2019-05-01T17:21:12.906Z,97598.22
2019-05-01T17:23:42.240Z,97604.84
2019-05-01T17:26:11.582Z,97600.11
2019-05-01T17:28:40.912Z,97602.94
2019-05-01T17:31:10.691Z,97608.42
2019-05-01T17:33:40.089Z,97602.73
2019-05-01T17:36:09.491Z,97601.95
2019-05-01T17:38:48.982Z,97600.06
2019-05-01T17:41:22.619Z,97607.09
2019-05-01T17:44:14.850Z,97601.22
2019-05-01T17:46:46.963Z,97600.34
2019-05-01T17:49:20.703Z,97604.31
2019-05-01T17:51:50.038Z,97600.33
2019-05-01T17:54:19.370Z,97603.62
2019-05-01T18:03:05.368Z,97601.72
2019-05-01T18:05:56.220Z,97600.28
2019-05-01T18:11:47.312Z,97599.16
2019-05-01T18:14:41.611Z,97599.14
2019-05-01T18:17:10.951Z,97596.86
2019-05-01T18:19:40.294Z,97597.16
2019-05-01T18:28:29.874Z,97593.14
2019-05-01T18:33:44.856Z,97607.75
2019-05-01T18:36:14.188Z,97610.15
2019-05-01T18:41:43.139Z,97608.02
2019-05-01T18:44:12.489Z,97610.14
2019-05-01T18:46:41.822Z,97608.09
2019-05-01T18:52:13.419Z,97612.36
2019-05-01T18:54:42.753Z,97606.84
2019-05-01T18:57:17.724Z,97607.62
2019-05-01T18:59:59.405Z,97610.07
2019-05-01T19:02:28.756Z,97612.97
2019-05-01T19:05:17.433Z,97597.44
2019-05-01T19:07:46.847Z,97600.14
2019-05-01T19:10:16.191Z,97617.14
2019-05-01T19:12:45.529Z,97613.22
2019-05-01T19:15:14.876Z,97621.05
2019-05-01T19:17:44.232Z,97600.51
2019-05-01T19:20:13.660Z,97622.51
2019-05-01T19:22:42.961Z,97621.52
2019-05-01T19:25:23.971Z,97609.98
2019-05-01T19:28:07.149Z,97609.44
2019-05-01T19:31:16.408Z,97609.44
2019-05-01T19:37:09.090Z,97619.09
2019-05-01T19:39:43.797Z,97619.09
2019-05-01T19:45:14.956Z,97623.43
2019-05-01T19:48:03.656Z,97627.84
2019-05-01T19:50:32.985Z,97627.84
2019-05-01T19:53:02.445Z,97628.90
2019-05-01T19:55:44.865Z,97627.23
2019-05-01T19:58:26.930Z,97627.02
2019-05-01T20:01:38.446Z,97627.02
2019-05-01T20:04:16.814Z,97622.77
2019-05-01T20:06:58.354Z,97617.09
2019-05-01T20:09:27.683Z,97605.23
2019-05-01T20:12:16.368Z,97613.08
2019-05-01T20:14:45.799Z,97613.08
2019-05-01T20:17:34.480Z,97613.76
2019-05-01T20:23:35.799Z,97612.72
2019-05-01T20:26:05.137Z,97612.72
2019-05-01T20:28:34.484Z,97615.03
2019-05-01T20:31:25.783Z,97611.12
2019-05-01T20:34:00.237Z,97611.12
2019-05-01T20:36:29.572Z,97612.86
2019-05-01T20:39:11.536Z,97605.34
2019-05-01T20:41:40.886Z,97605.34
2019-05-01T20:44:10.216Z,97609.41
2019-05-01T20:46:39.565Z,97606.75
2019-05-01T20:49:08.909Z,97596.73
2019-05-01T20:51:38.238Z,97596.73
2019-05-01T20:54:07.751Z,97595.34
2019-05-01T20:59:35.182Z,97605.13
2019-05-01T21:02:09.640Z,97605.13
2019-05-01T21:04:58.099Z,97600.98
2019-05-01T21:11:06.024Z,97600.52
2019-05-01T21:13:38.972Z,97596.94
2019-05-01T21:16:08.320Z,97606.75
2019-05-01T21:18:37.654Z,97604.42
2019-05-01T21:21:07.344Z,97613.17
2019-05-01T21:23:36.699Z,97608.23
2019-05-01T21:26:06.038Z,97611.77
2019-05-01T21:28:35.375Z,97610.48
2019-05-01T21:31:04.721Z,97611.78
2019-05-01T21:33:34.282Z,97611.39
2019-05-01T21:36:13.940Z,97610.92
2019-05-01T21:38:43.270Z,97611.94
2019-05-01T21:41:12.604Z,97604.09
2019-05-01T21:43:42.488Z,97601.52
2019-05-01T21:46:33.937Z,97596.76
2019-05-01T21:49:08.771Z,97594.63
2019-05-01T21:51:42.380Z,97594.09
2019-05-01T21:54:28.237Z,97591.27
2019-05-01T21:56:57.808Z,97589.56
2019-05-01T21:59:27.138Z,97584.38
2019-05-01T22:01:56.579Z,97582.68
2019-05-01T22:04:28.002Z,97582.14
2019-05-01T22:07:02.568Z,97582.47
2019-05-01T22:12:14.279Z,97577.94
2019-05-01T22:23:59.131Z,97570.97
2019-05-01T22:32:34.121Z,97578.95
2019-05-01T22:35:14.749Z,97578.05
2019-05-01T22:37:44.095Z,97576.63
2019-05-01T22:43:14.990Z,97570.63
2019-05-01T22:45:44.390Z,97572.99
2019-05-01T22:48:13.768Z,97569.66
2019-05-01T22:50:43.108Z,97568.38
2019-05-01T22:53:13.331Z,97566.61
2019-05-01T22:55:49.116Z,97568.24
2019-05-01T22:58:18.425Z,97562.13
2019-05-01T23:01:06.952Z,97570.00
2019-05-01T23:03:55.401Z,97568.28
2019-05-01T23:06:24.883Z,97564.91
2019-05-01T23:08:54.210Z,97567.59
2019-05-01T23:14:18.823Z,97563.27
2019-05-01T23:22:43.420Z,97554.36
2019-05-01T23:25:27.323Z,97551.73
2019-05-01T23:27:50.073Z,97549.66
2019-05-01T23:34:08.488Z,97542.79
2019-05-01T23:36:37.819Z,97542.06
2019-05-01T23:39:07.156Z,97538.08
2019-05-01T23:41:45.672Z,97532.61
2019-05-01T23:44:26.699Z,97533.38
2019-05-01T23:46:56.039Z,97527.31
2019-05-01T23:49:25.385Z,97526.86
2019-05-01T23:51:58.641Z,97528.15
2019-05-01T23:54:44.852Z,97525.31
2019-05-01T23:57:14.894Z,97520.45
